• Join FlightAware (Why Join?)
  • Login
  • US Flag 
02:53PM EDT


 

Airport Tracker/Info


-or-


 

Live Flight TrackerFlight Track Log ✈ BYA373 ✈ 03-Sep-2013 ✈ KIOB - KBRO

Flight Track Log - Related Links

Times and Time Zones

All times are in EDT time to prevent confusion due to time zone crossing. See the BYA373 flight status page for this flight to view local times or setup timezone preferences in your user account.

Time Position Orientation Groundspeed Altitude Reporting Facility
EDT Latitude Longitude Course Direction KTS MPH feet Rate Location/Type
11:21AM 37.9981 -84.3069 253° West 208 239 8,300  Level Indianapolis Center
11:22AM 37.9847 -84.3789 257° West 209 241 9,200 780 Climbing Indianapolis Center
11:23AM 37.9656 -84.4514 251° West 213 245 10,000 780 Climbing Indianapolis Center
11:24AM 37.9667 -84.4431 270° West  Level FlightAware Approximate
11:24AM 37.9494 -84.5267 255° West 220 253 10,800  Level Indianapolis Center
11:25AM 37.9322 -84.5067 241° Southwest  Level FlightAware Approximate
11:25AM 37.9319 -84.5983 253° West 214 246 11,800  Level Indianapolis Center
11:26AM 37.9064 -84.6831 249° West 219 252 12,600 660 Climbing Indianapolis Center
11:27AM 37.8842 -84.7531 248° West 219 252 13,200 480 Climbing Indianapolis Center
11:28AM 37.8503 -84.8208 238° Southwest 226 260 13,700 540 Climbing Indianapolis Center
11:29AM 37.8125 -84.8858 234° Southwest 230 265 14,400 480 Climbing Indianapolis Center
11:30AM 37.7669 -84.9458 226° Southwest 234 269 14,800 420 Climbing Indianapolis Center
11:31AM 37.7197 -85.0036 224° Southwest 238 274 15,300 480 Climbing Indianapolis Center
11:32AM 37.6681 -85.0764 228° Southwest 244 281 15,900 480 Climbing Indianapolis Center
11:33AM 37.6322 -85.1431 236° Southwest 232 267 16,300 360 Climbing Indianapolis Center
11:34AM 37.5908 -85.2075 231° Southwest 235 270 16,700 360 Climbing Indianapolis Center
11:35AM 37.5375 -85.2628 219° Southwest 245 282 17,100 240 Climbing Indianapolis Center
11:36AM 37.4983 -85.3294 233° Southwest 238 274 17,300 240 Climbing Indianapolis Center
11:37AM 37.4644 -85.4014 239° Southwest 238 274 17,700 360 Climbing Indianapolis Center
11:38AM 37.4225 -85.4678 232° Southwest 240 276 18,100 360 Climbing Indianapolis Center
11:39AM 37.3786 -85.5344 230° Southwest 242 278 18,500 240 Climbing Indianapolis Center
11:40AM 37.3367 -85.6000 231° Southwest 241 277 18,700 240 Climbing Indianapolis Center
11:41AM 37.2856 -85.6783 231° Southwest 241 277 19,100 300 Climbing Indianapolis Center
11:42AM 37.2425 -85.7436 230° Southwest 238 274 19,400 240 Climbing Indianapolis Center
11:43AM 37.2031 -85.8089 233° Southwest 237 273 19,700 240 Climbing Indianapolis Center
11:44AM 37.1639 -85.8742 233° Southwest 234 269 20,000 300 Climbing Indianapolis Center
11:45AM 37.1258 -85.9389 234° Southwest 231 266 20,400 240 Climbing Indianapolis Center
11:47AM 37.0869 -86.0050 234° Southwest 232 267 20,600 180 Climbing Indianapolis Center
11:48AM 37.0514 -86.0719 236° Southwest 229 264 20,800 240 Climbing Indianapolis Center
11:49AM 37.0172 -86.1375 237° Southwest 223 257 21,100 240 Climbing Indianapolis Center
11:50AM 36.9789 -86.2025 234° Southwest 229 264 21,300 180 Climbing Indianapolis Center
11:51AM 36.9439 -86.2675 236° Southwest 223 257 21,500 240 Climbing Indianapolis Center
11:52AM 36.9094 -86.3483 242° Southwest 224 258 21,800 240 Climbing Indianapolis Center
11:53AM 36.8778 -86.4158 240° Southwest 223 257 22,000 60 Climbing Indianapolis Center
11:54AM 36.8442 -86.4850 239° Southwest 229 264 22,000  Level Indianapolis Center
11:55AM 36.8061 -86.5517 235° Southwest 235 270 22,000  Level Indianapolis Center
11:56AM 36.7514 -86.6489 235° Southwest 249 287 22,000  Level Memphis Center
11:57AM 36.7053 -86.7131 228° Southwest 249 287 22,000  Level Memphis Center
11:58AM 36.6592 -86.7772 228° Southwest 260 299 22,000  Level Memphis Center
11:59AM 36.6089 -86.8389 225° Southwest 255 293 22,000  Level Memphis Center
12:00PM 36.5586 -86.9006 225° Southwest 255 293 22,000  Level Memphis Center
12:01PM 36.5081 -86.9619 224° Southwest 255 293 22,000  Level Memphis Center
12:02PM 36.4533 -87.0211 221° Southwest 260 299 22,000  Level Memphis Center
12:03PM 36.3986 -87.0775 220° Southwest 265 305 22,100  Climbing Memphis Center
12:04PM 36.3439 -87.1364 221° Southwest 260 299 22,100  Level Memphis Center
12:05PM 36.2933 -87.1950 223° Southwest 255 293 22,100 -60 Level Memphis Center
12:06PM 36.2450 -87.2639 229° Southwest 265 305 22,000 -60 Descending Memphis Center
12:07PM 36.1944 -87.3222 223° Southwest 265 305 22,000  Level Memphis Center
12:08PM 36.1417 -87.3833 223° Southwest 265 305 22,000 -60 Level Memphis Center
12:09PM 36.0953 -87.4519 230° Southwest 265 305 21,900 -60 Descending Memphis Center
12:10PM 36.0486 -87.5075 224° Southwest 265 305 21,900  Level Memphis Center
12:11PM 36.0042 -87.5731 230° Southwest 259 298 21,900  Level Memphis Center
12:12PM 35.9536 -87.6364 225° Southwest 254 292 22,000  Climbing Memphis Center
12:13PM 35.8986 -87.6997 223° Southwest 254 292 21,900 -60 Descending Memphis Center
12:14PM 35.8436 -87.7553 219° Southwest 266 306 21,900  Level Memphis Center
12:15PM 35.7906 -87.8158 223° Southwest 266 306 22,000  Climbing Memphis Center
12:16PM 35.7397 -87.8761 224° Southwest 266 306 22,000  Level Memphis Center
12:17PM 35.6806 -87.9444 223° Southwest 266 306 22,000  Level Memphis Center
12:18PM 35.6253 -88.0022 220° Southwest 266 306 22,000  Level Memphis Center
12:19PM 35.5786 -88.0700 230° Southwest 261 300 22,000  Level Memphis Center
12:20PM 35.5319 -88.1375 230° Southwest 261 300 22,000  Level Memphis Center
12:21PM 35.4869 -88.2000 229° Southwest 261 300 22,000  Level Memphis Center
12:22PM 35.4403 -88.2672 230° Southwest 267 307 22,000  Level Memphis Center
12:23PM 35.3914 -88.3372 229° Southwest 267 307 22,000  Level Memphis Center
12:24PM 35.3508 -88.4097 236° Southwest 262 302 22,000  Level Memphis Center
12:25PM 35.3247 -88.4867 247° West 257 296 22,100  Climbing Memphis Center
12:26PM 35.2842 -88.5586 235° Southwest 257 296 22,100  Level Memphis Center
12:27PM 35.2478 -88.6358 240° Southwest 257 296 22,100  Level Memphis Center
12:28PM 35.2028 -88.7028 231° Southwest 257 296 22,100  Level Memphis Center
12:29PM 35.1642 -88.7772 238° Southwest 263 303 22,100  Level Memphis Center
12:30PM 35.1336 -88.8464 242° Southwest 263 303 22,100  Level Memphis Center
12:31PM 35.0969 -88.9231 240° Southwest 263 303 22,100  Level Memphis Center
12:32PM 35.0561 -88.9975 236° Southwest 263 303 22,100  Level Memphis Center
12:33PM 35.0194 -89.0689 238° Southwest 263 303 22,100  Level Memphis Center
12:34PM 34.9806 -89.1456 238° Southwest 263 303 22,100 -60 Level Memphis Center
12:35PM 34.9417 -89.2197 237° Southwest 263 303 22,000 -120 Descending Memphis Center
12:36PM 34.8986 -89.3011 237° Southwest 257 296 21,900  Descending Memphis Center
12:37PM 34.8594 -89.3725 236° Southwest 257 296 22,000  Climbing Memphis Center
12:38PM 34.8119 -89.4389 229° Southwest 262 302 22,000  Level Memphis Center
12:39PM 34.7581 -89.5003 223° Southwest 262 302 22,100  Climbing Memphis Center
12:40PM 34.7106 -89.5664 229° Southwest 267 307 22,000  Descending Memphis Center
12:41PM 34.6736 -89.6425 239° Southwest 267 307 22,100  Climbing Memphis Center
12:42PM 34.6406 -89.7108 240° Southwest 267 307 22,000 -60 Descending Memphis Center
12:43PM 34.6033 -89.7869 239° Southwest 267 307 22,000  Level Memphis Center
12:44PM 34.5619 -89.8553 234° Southwest 272 313 22,000  Level Memphis Center
12:45PM 34.5164 -89.9236 231° Southwest 272 313 22,100 -60 Climbing Memphis Center
12:46PM 34.4644 -89.9994 230° Southwest 272 313 21,900 -120 Descending Memphis Center
12:47PM 34.4186 -90.0650 230° Southwest 272 313 21,900  Level Memphis Center
12:48PM 34.3686 -90.1306 227° Southwest 266 306 21,900  Level Memphis Center
12:49PM 34.3125 -90.1861 219° Southwest 261 300 21,900  Level Memphis Center
12:50PM 34.2519 -90.2339 213° Southwest 261 300 22,000  Climbing Memphis Center
12:51PM 34.1894 -90.2794 211° Southwest 266 306 21,900  Descending Memphis Center
12:52PM 34.1247 -90.3244 210° Southwest 266 306 22,000  Climbing Memphis Center
12:53PM 34.0706 -90.3797 220° Southwest 271 312 21,900  Descending Memphis Center
12:54PM 34.0225 -90.4450 228° Southwest 266 306 22,000  Climbing Memphis Center
12:55PM 33.9806 -90.5050 230° Southwest 266 306 22,000  Level Memphis Center
12:56PM 33.9325 -90.5700 228° Southwest 260 299 22,000  Level Memphis Center
12:57PM 33.8822 -90.6325 226° Southwest 265 305 22,100  Climbing Memphis Center
12:58PM 33.8300 -90.6947 225° Southwest 265 305 22,100  Level Memphis Center
12:59PM 33.7733 -90.7594 224° Southwest 265 305 22,100 -120 Level Memphis Center
01:00PM 33.7253 -90.8292 230° Southwest 270 311 21,900 -60 Descending Memphis Center
01:01PM 33.6811 -90.8989 233° Southwest 270 311 22,000  Climbing Memphis Center
01:02PM 33.6267 -90.9608 223° Southwest 276 318 22,000  Level Memphis Center
01:03PM 33.5700 -91.0178 220° Southwest 271 312 22,000  Level Memphis Center
01:04PM 33.5153 -91.0772 222° Southwest 271 312 22,000  Level Memphis Center
01:05PM 33.4628 -91.1392 225° Southwest 265 305 22,000  Level Memphis Center
01:06PM 33.4206 -91.2083 234° Southwest 265 305 22,000  Level Memphis Center
01:07PM 33.3700 -91.2728 227° Southwest 265 305 22,000  Level Memphis Center
01:08PM 33.3111 -91.3242 216° Southwest 265 305 22,100  Climbing Memphis Center
01:09PM 33.2628 -91.3808 224° Southwest 265 305 22,100  Level Memphis Center
01:10PM 33.2100 -91.4422 224° Southwest 265 305 22,100  Level Memphis Center
01:11PM 33.1492 -91.4886 213° Southwest 265 305 22,200 -60 Climbing Memphis Center
01:13PM 33.0589 -91.5744 219° Southwest 258 297 22,000 -120 Descending Fort Worth Center
01:14PM 32.9986 -91.6228 214° Southwest 263 303 22,000  Level Fort Worth Center
01:15PM 32.9383 -91.6739 215° Southwest 263 303 22,000  Level Fort Worth Center
01:16PM 32.8758 -91.7247 214° Southwest 268 308 22,100  Climbing Fort Worth Center
01:17PM 32.8175 -91.7753 216° Southwest 268 308 22,100  Level Fort Worth Center
01:18PM 32.7636 -91.8281 219° Southwest 274 315 22,100 -60 Level Fort Worth Center
01:19PM 32.7078 -91.8858 221° Southwest 269 310 22,000  Descending Fort Worth Center
01:20PM 32.5875 -91.9825 214° Southwest 261 300 22,100  Climbing Houston Center
01:22PM 32.5272 -92.0303 214° Southwest 261 300 22,100  Level Houston Center
01:23PM 32.4719 -92.0872 221° Southwest 262 302 22,100 -60 Level Houston Center
01:24PM 32.4158 -92.1408 219° Southwest 261 300 22,000 -60 Descending Houston Center
01:25PM 32.3592 -92.1944 219° Southwest 261 300 22,000  Level Houston Center
01:26PM 32.3053 -92.2508 221° Southwest 259 298 22,100  Climbing Houston Center
01:27PM 32.2428 -92.3217 224° Southwest 260 299 22,100  Level Houston Center
01:28PM 32.1850 -92.3744 218° Southwest 263 303 22,200  Climbing Houston Center
01:29PM 32.1322 -92.4297 222° Southwest 256 295 22,100 -60 Descending Houston Center
01:30PM 32.0786 -92.4869 222° Southwest 260 299 22,100  Level Houston Center
01:31PM 32.0319 -92.5514 230° Southwest 259 298 22,100  Level Houston Center
01:32PM 31.9792 -92.6078 222° Southwest 259 298 22,200  Climbing Houston Center
01:33PM 31.9236 -92.6869 230° Southwest 260 299 22,200 -60 Level Houston Center
01:34PM 31.8697 -92.7444 222° Southwest 262 302 22,100 -60 Descending Houston Center
01:35PM 31.8153 -92.8014 222° Southwest 263 303 22,100  Level Houston Center
01:36PM 31.7614 -92.8586 222° Southwest 260 299 22,100 -60 Level Houston Center
01:37PM 31.7108 -92.9206 226° Southwest 263 303 22,000 -60 Descending Houston Center
01:38PM 31.6608 -92.9825 227° Southwest 262 302 22,000  Level Houston Center
01:39PM 31.5997 -93.0561 226° Southwest 262 302 22,000  Level Houston Center
01:40PM 31.5483 -93.1167 225° Southwest 261 300 22,000  Level Houston Center
01:41PM 31.4933 -93.1731 221° Southwest 263 303 22,100 -60 Climbing Houston Center
01:42PM 31.4417 -93.2325 224° Southwest 262 302 21,900 -60 Descending Houston Center
01:43PM 31.3853 -93.2864 219° Southwest 262 302 22,000 60 Climbing Houston Center
01:44PM 31.3297 -93.3419 221° Southwest 262 302 22,100  Climbing Houston Center
01:45PM 31.2661 -93.4108 223° Southwest 261 300 22,100  Level Houston Center
01:46PM 31.2100 -93.4656 220° Southwest 261 300 22,100  Level Houston Center
01:47PM 31.1517 -93.5153 216° Southwest 260 299 22,100  Level Houston Center
01:48PM 31.0931 -93.5658 216° Southwest 263 303 22,100  Level Houston Center
01:49PM 31.0319 -93.6194 217° Southwest 265 305 22,100  Level Houston Center
01:50PM 30.9714 -93.6725 217° Southwest 270 311 22,100  Level Houston Center
01:51PM 30.9025 -93.6944 195° South 261 300 22,100 -60 Level Houston Center
01:52PM 30.8361 -93.7194 198° South 270 311 22,000 -60 Descending Houston Center
01:53PM 30.7819 -93.8028 233° Southwest 267 307 22,000  Level Houston Center
01:54PM 30.7389 -93.8731 235° Southwest 265 305 22,100  Climbing Houston Center
01:56PM 30.6931 -93.9403 232° Southwest 265 305 22,100 -60 Level Houston Center
01:57PM 30.6400 -94.0042 226° Southwest 270 311 22,000  Descending Houston Center
01:58PM 30.5972 -94.0750 235° Southwest 268 308 22,100  Climbing Houston Center
01:59PM 30.5514 -94.1453 233° Southwest 271 312 22,100  Level Houston Center
02:00PM 30.5147 -94.2211 241° Southwest 270 311 22,100  Level Houston Center
02:01PM 30.4642 -94.3050 235° Southwest 265 305 22,100  Level Houston Center
02:02PM 30.4183 -94.3725 232° Southwest 266 306 22,100 -120 Level Houston Center
02:03PM 30.3706 -94.4417 231° Southwest 270 311 21,900  Descending Houston Center
02:04PM 30.3253 -94.5058 231° Southwest 268 308 22,100  Climbing Houston Center
02:05PM 30.2781 -94.5731 231° Southwest 269 310 22,000 -120 Descending Houston Center
02:06PM 30.2364 -94.6444 236° Southwest 268 308 21,900 -60 Descending Houston Center
02:07PM 30.1875 -94.7111 230° Southwest 272 313 21,900  Level Houston Center
02:08PM 30.1319 -94.7900 231° Southwest 266 306 22,000  Climbing Houston Center
02:09PM 30.0836 -94.8542 229° Southwest 266 306 22,000 -60 Level Houston Center
02:10PM 30.0364 -94.9194 230° Southwest 265 305 21,900  Descending Houston Center
02:11PM 29.9933 -94.9867 234° Southwest 263 303 22,000  Climbing Houston Center
02:12PM 29.9497 -95.0547 234° Southwest 264 304 22,000  Level Houston Center
02:13PM 29.8942 -95.1331 231° Southwest 264 304 22,000 -60 Level Houston Center
02:14PM 29.8467 -95.1961 229° Southwest 263 303 21,900 -60 Descending Houston Center
02:15PM 29.8022 -95.2636 233° Southwest 267 307 21,900  Level Houston Center
02:16PM 29.7547 -95.3281 230° Southwest 267 307 21,900  Level Houston Center
02:17PM 29.6981 -95.4033 229° Southwest 263 303 22,000  Climbing Houston Center
02:18PM 29.6500 -95.4658 229° Southwest 263 303 21,900  Descending Houston Center
02:19PM 29.6025 -95.5308 230° Southwest 265 305 22,000 60 Climbing Houston Center
02:20PM 29.5569 -95.5967 232° Southwest 265 305 22,100 60 Climbing Houston Center
02:21PM 29.5089 -95.6592 229° Southwest 263 303 22,200  Climbing Houston Center
02:22PM 29.4556 -95.7161 223° Southwest 263 303 22,200 -60 Level Houston Center
02:23PM 29.3997 -95.7953 231° Southwest 266 306 22,100 -60 Descending Houston Center
02:24PM 29.3486 -95.8561 226° Southwest 265 305 22,100  Level Houston Center
02:25PM 29.3039 -95.9225 232° Southwest 265 305 22,200  Climbing Houston Center
02:27PM 29.2583 -95.9939 234° Southwest 264 304 22,100 -120 Descending Houston Center
02:28PM 29.2047 -96.0550 225° Southwest 271 312 22,000 -60 Descending Houston Center
02:29PM 29.1358 -96.0919 205° Southwest 271 312 22,000  Level Houston Center
02:30PM 29.0689 -96.1233 202° Southwest 263 303 22,100 -60 Climbing Houston Center
02:31PM 29.0069 -96.1658 211° Southwest 260 299 21,900 -60 Descending Houston Center
02:32PM 28.9353 -96.2244 216° Southwest 262 302 22,000  Climbing Houston Center
02:33PM 28.8747 -96.2706 214° Southwest 260 299 21,900 -60 Descending Houston Center
02:34PM 28.8147 -96.3203 216° Southwest 264 304 21,900  Level Houston Center
02:35PM 28.7553 -96.3678 215° Southwest 262 302 22,000  Climbing Houston Center
02:36PM 28.6947 -96.4139 214° Southwest 261 300 22,000  Level Houston Center
02:37PM 28.6342 -96.4581 213° Southwest 260 299 22,000  Level Houston Center
02:38PM 28.5611 -96.5153 215° Southwest 263 303 22,100  Climbing Houston Center
02:39PM 28.5006 -96.5608 213° Southwest 262 302 22,000 -60 Descending Houston Center
02:40PM 28.4419 -96.6097 216° Southwest 261 300 22,000 -60 Level Houston Center
02:41PM 28.3878 -96.6664 223° Southwest 263 303 21,900 -60 Descending Houston Center
02:42PM 28.3278 -96.7100 213° Southwest 259 298 21,900  Level Houston Center
02:43PM 28.2686 -96.7594 216° Southwest 260 299 21,900  Level Houston Center
02:44PM 28.1978 -96.8136 214° Southwest 257 296 22,000  Climbing Houston Center
02:45PM 28.1367 -96.8575 212° Southwest 258 297 22,000  Level Houston Center
02:46PM 28.0758 -96.9025 213° Southwest 260 299 22,000  Level Houston Center
02:47PM 28.0119 -96.9411 208° Southwest 260 299 22,000  Level Houston Center
02:48PM 27.9586 -96.9958 222° Southwest 258 297 22,100 -60 Climbing Houston Center
02:49PM 27.9081 -97.0581 227° Southwest 262 302 21,900 -60 Descending Houston Center
02:50PM 27.8356 -97.1150 215° Southwest 265 305 22,000  Climbing Houston Center
02:51PM 27.7769 -97.1697 220° Southwest 268 308 21,900  Descending Houston Center
02:52PM 27.7200 -97.2211 219° Southwest 267 307 22,000 -420 Climbing Houston Center
02:53PM 27.6631 -97.2711 218° Southwest 264 304 21,100 -840 Descending Houston Center
02:54PM 27.5778 -97.2839 188° South 290 334 20,300 -780 Descending Houston Center
02:55PM 27.4981 -97.2875 182° South 289 333 19,500 -900 Descending Houston Center
02:57PM 27.3992 -97.2817 177° South 292 336 18,500 -900 Descending Houston Center
02:58PM 27.3214 -97.2775 177° South 288 331 17,700 -840 Descending Houston Center
02:59PM 27.2394 -97.2725 177° South 290 334 16,800 -720 Descending Houston Center
03:00PM 27.1581 -97.2650 175° South 293 337 16,300 -420 Descending Houston Center
03:01PM 27.0786 -97.2594 176° South 288 331 16,000 -180 Descending Houston Center
03:01PM 27.0100 -97.2564 178° South 274 315 16,000 -240 Level Houston Center
03:02PM 26.9319 -97.2553 179° South 269 310 15,600 -720 Descending Houston Center
03:03PM 26.8522 -97.2569 181° South 296 341 14,600 -1,080 Descending Houston Center
03:04PM 26.7686 -97.2614 183° South 300 345 13,500 -960 Descending Houston Center
03:05PM 26.6836 -97.2756 188° South 305 351 12,700 -720 Descending Houston Center
03:07PM 26.5989 -97.3269 208° Southwest 301 346 12,000 -660 Descending Houston Center
03:07PM 26.5381 -97.3658 210° Southwest 301 346 11,400 -840 Descending Houston Center
03:08PM 26.4569 -97.4142 208° Southwest 306 352 10,400 -1,080 Descending Houston Center
03:10PM 26.3814 -97.4550 206° Southwest 301 346 9,300 -1,320 Descending Houston Center
03:11PM 26.3083 -97.4975 208° Southwest 294 338 7,800 -1,440 Descending Houston Center
03:12PM 26.2331 -97.5217 196° South 281 323 6,400 -1,620 Descending Houston Center
03:12PM 26.1922 -97.5336 195° South 282 325 5,400 -1,620 Descending Houston Center
03:13PM 26.1558 -97.5461 197° South 281 323 4,800 -1,200 Descending Houston Center
03:13PM 26.1164 -97.5603 198° South 283 326 4,200 -1,140 Descending Houston Center
03:14PM 26.0467 -97.5489 172° South 252 290 3,100 -1,020 Descending Houston Center
03:15PM 25.9956 -97.5178 151° Southeast 198 228 2,100 -960 Descending Houston Center
03:16PM 25.9650 -97.4886 139° Southeast 151 174 1,200 -780 Descending Houston Center
03:17PM 25.9356 -97.4550 134° Southeast 142 163 600 -540 Descending Houston Center
03:18PM 25.9069 -97.4244 136° Southeast 144 166 200 -420 Descending Houston Center
03:20PM 25.9068 -97.4258 250° West  Level Estimated